Estación Meteorológica Peña el Pijo (Robertgarden) [ 01/30/23 13:44:44 CET ]

Fecha Hora Presion(HPa) Temp (°C) Humedad % Rocio (°C) Viento ( m/s) Direccion Lluvia 1Hora(mm) Lluvia 24H(mm) LLuvia Total(mm)
2012-Sep-04 01:01:16 1012.900 11.9 64 5.3         178.19
2012-Sep-04 02:01:17 1013.200 10.7 69 5.3         178.19
2012-Sep-04 03:01:48 1013.100 9.6 71 4.6         178.19
2012-Sep-04 04:06:16 1013.000 8.8 74 4.4         178.19
2012-Sep-04 05:01:11 1012.800 8.1 76 4.1         178.19
2012-Sep-04 06:01:12 1012.400 8.1 78 4.5         178.19
2012-Sep-04 07:01:14 1012.400 7.8 78 4.2         178.19
2012-Sep-04 08:01:15 1012.500 7.3 80 4.1         178.19
2012-Sep-04 09:01:17 1012.700 11.1 77 7.2         178.19
2012-Sep-04 10:01:15 1012.500 17.6 55 8.4         178.19
2012-Sep-04 11:01:19 1012.200 22.5 36 6.6         178.19
2012-Sep-04 12:01:12 1012.300 24.3 34 7.3         178.19
2012-Sep-04 13:01:16 1012.300 26.2 29 6.7         178.19
2012-Sep-04 14:01:17 1011.900 28.2 25 6.1         178.19
2012-Sep-04 15:01:14 1011.400 30.6 23 6.9         178.19
2012-Sep-04 16:01:14 1010.900 28.4 27 7.4         178.19
2012-Sep-04 17:01:14 1010.300 25.9 26 4.7         178.19
2012-Sep-04 18:01:14 1010.500 24.1 29 4.9         178.19
2012-Sep-04 19:01:18 1010.200 25.8 28 5.8         178.19
2012-Sep-04 20:01:17 1010.300 23.1 31 5.0         178.19
2012-Sep-04 21:01:13 1010.500 20.4 44 7.7         178.19
2012-Sep-04 22:01:12 1011.500 18.2 54 8.7 0.9 NE     178.19
2012-Sep-04 23:01:13 1011.800 17.1 57 8.5         178.19

Temperatura Máxima:30°    Temperatura Mínima:
Presión Máxima:1013.200 Hpa    Presión Mínima:1010.200 Hpa


Volver